Time;durP1;ratioP1;P1;durP2;ratioP2;P2;SDS_P1;SDS_P2;PMS_P1;PMS_P2;Temp;Humidity;BMP_temperature;BMP_pressure;BME280_temperature;BME280_humidity;BME280_pressure;Samples;Min_cycle;Max_cycle;Signal;HPM_P1;HPM_P2
2022/08/01 00:00:12;;;;;;;5.50;4.20;;;22.90;1.00;;;;;;5086028;28;20183;-72
2022/08/01 00:02:38;;;;;;;7.53;4.13;;;22.90;1.00;;;;;;5097281;28;20237;-72
2022/08/01 00:05:07;;;;;;;6.27;3.90;;;22.90;1.00;;;;;;5089612;28;20179;-73
2022/08/01 00:07:33;;;;;;;6.50;4.03;;;22.90;1.00;;;;;;5079214;28;20896;-72
2022/08/01 00:09:59;;;;;;;12.23;4.40;;;22.90;1.00;;;;;;5089083;28;20511;-72
2022/08/01 00:12:24;;;;;;;5.17;4.17;;;22.90;1.00;;;;;;5085990;28;20936;-72
2022/08/01 00:14:50;;;;;;;5.83;4.30;;;22.90;1.00;;;;;;5091376;28;20546;-73
2022/08/01 00:17:15;;;;;;;11.33;4.17;;;22.80;1.00;;;;;;5087647;28;20213;-73
2022/08/01 00:19:41;;;;;;;6.70;4.43;;;22.80;1.00;;;;;;5089206;28;20224;-73
2022/08/01 00:22:06;;;;;;;7.23;4.30;;;22.80;1.00;;;;;;5087864;28;20585;-73
2022/08/01 00:24:32;;;;;;;5.27;4.13;;;22.70;1.00;;;;;;5090821;28;20214;-73
2022/08/01 00:26:57;;;;;;;7.37;4.03;;;22.70;1.00;;;;;;5087686;28;20194;-72
2022/08/01 00:29:23;;;;;;;4.60;3.67;;;22.60;1.00;;;;;;5089512;28;20183;-72
2022/08/01 00:31:48;;;;;;;8.20;4.30;;;22.50;1.00;;;;;;5091606;28;20202;-73
2022/08/01 00:34:14;;;;;;;5.30;4.03;;;22.40;1.00;;;;;;5094622;28;20187;-73
2022/08/01 00:36:39;;;;;;;5.20;3.77;;;22.40;1.00;;;;;;5089707;28;20167;-72
2022/08/01 00:39:05;;;;;;;7.67;3.90;;;22.30;1.00;;;;;;5085731;28;20183;-72
2022/08/01 00:41:31;;;;;;;7.90;3.83;;;22.30;1.00;;;;;;5079671;28;20554;-72
2022/08/01 00:43:56;;;;;;;5.83;4.00;;;22.20;1.00;;;;;;5090105;28;20176;-73
2022/08/01 00:46:22;;;;;;;8.20;4.30;;;22.20;1.00;;;;;;5089781;28;20176;-72
2022/08/01 00:48:47;;;;;;;6.83;4.33;;;22.10;1.00;;;;;;5088861;28;20171;-72
2022/08/01 00:51:14;;;;;;;7.80;4.20;;;22.10;1.00;;;;;;5087424;28;20234;-72
2022/08/01 00:53:39;;;;;;;6.67;4.93;;;21.90;1.00;;;;;;5087877;28;20187;-72
2022/08/01 00:56:06;;;;;;;7.33;5.07;;;21.80;1.00;;;;;;5089758;28;20497;-72
2022/08/01 00:58:33;;;;;;;5.97;4.50;;;21.80;1.00;;;;;;5084629;28;20183;-72
2022/08/01 01:00:59;;;;;;;6.47;4.50;;;21.90;1.00;;;;;;5089373;28;20599;-72
2022/08/01 01:03:25;;;;;;;9.50;4.27;;;21.90;1.00;;;;;;5088157;28;20821;-72
2022/08/01 01:06:09;;;;;;;6.23;4.30;;;21.90;1.00;;;;;;5090374;28;20445;-72
2022/08/01 01:09:14;;;;;;;5.30;4.03;;;22.30;1.00;;;;;;5083939;28;20537;-72
2022/08/01 01:12:08;;;;;;;4.70;3.90;;;21.80;1.00;;;;;;5086239;28;20569;-73
2022/08/01 01:14:46;;;;;;;5.63;4.40;;;21.70;1.00;;;;;;5082280;28;20947;-72
2022/08/01 01:17:16;;;;;;;8.20;4.40;;;21.70;1.00;;;;;;5090162;28;20484;-72
2022/08/01 01:19:47;;;;;;;5.83;4.07;;;21.60;1.00;;;;;;5088061;28;20448;-72
2022/08/01 01:22:27;;;;;;;4.97;3.60;;;21.60;1.00;;;;;;5088433;28;20437;-72
2022/08/01 01:25:22;;;;;;;6.33;4.40;;;21.50;1.00;;;;;;5088632;28;20444;-73
2022/08/01 01:28:00;;;;;;;8.67;4.30;;;21.40;1.00;;;;;;5085971;28;20480;-72
2022/08/01 01:30:27;;;;;;;9.20;3.97;;;21.40;1.00;;;;;;5088252;28;20449;-72
2022/08/01 01:32:56;;;;;;;6.13;3.90;;;21.30;1.00;;;;;;5088410;28;20947;-72
2022/08/01 01:35:25;;;;;;;7.10;4.13;;;21.30;1.00;;;;;;5089826;28;20432;-72
2022/08/01 01:38:07;;;;;;;6.73;4.27;;;21.30;1.00;;;;;;5087938;28;20432;-72
2022/08/01 01:40:33;;;;;;;7.17;4.50;;;21.20;1.00;;;;;;5088867;28;20460;-72
2022/08/01 01:42:59;;;;;;;7.30;4.40;;;21.50;1.00;;;;;;5081171;28;20436;-72
2022/08/01 01:45:26;;;;;;;5.73;4.03;;;21.00;1.00;;;;;;5089464;28;20420;-71
2022/08/01 01:47:53;;;;;;;9.20;4.60;;;21.00;1.00;;;;;;5080457;28;20488;-72
2022/08/01 01:50:21;;;;;;;5.57;4.00;;;21.10;1.00;;;;;;5088471;28;20464;-72
2022/08/01 01:52:48;;;;;;;9.17;4.30;;;21.10;1.00;;;;;;5087101;28;20453;-72
2022/08/01 01:55:15;;;;;;;5.00;3.87;;;21.10;1.00;;;;;;5087154;28;20437;-72
2022/08/01 01:57:42;;;;;;;4.97;4.10;;;21.10;1.00;;;;;;5076818;28;20525;-72
2022/08/01 02:00:10;;;;;;;7.97;4.40;;;21.00;1.00;;;;;;5077167;28;20440;-72
2022/08/01 02:02:37;;;;;;;6.57;4.30;;;21.00;1.00;;;;;;5095121;28;20506;-72
2022/08/01 02:05:03;;;;;;;5.80;4.40;;;21.00;1.00;;;;;;5092836;28;20420;-72
2022/08/01 02:07:30;;;;;;;5.63;4.83;;;21.00;1.00;;;;;;5085679;28;20510;-72
2022/08/01 02:09:57;;;;;;;6.10;4.23;;;20.90;1.00;;;;;;5089004;28;20914;-72
2022/08/01 02:12:24;;;;;;;6.20;4.47;;;20.80;1.00;;;;;;5084486;28;20453;-71
2022/08/01 02:14:53;;;;;;;4.80;4.07;;;20.80;1.00;;;;;;5087935;28;20873;-72
2022/08/01 02:17:20;;;;;;;5.53;4.37;;;20.70;1.00;;;;;;5086519;28;20812;-72
2022/08/01 02:19:46;;;;;;;6.17;4.20;;;20.70;1.00;;;;;;5086254;28;20422;-72
2022/08/01 02:22:20;;;;;;;5.30;4.50;;;20.60;1.00;;;;;;5085844;28;20483;-72
2022/08/01 02:25:02;;;;;;;8.80;4.37;;;20.60;1.00;;;;;;5080470;28;20186;-73
2022/08/01 02:27:42;;;;;;;5.80;4.40;;;20.60;1.00;;;;;;5087347;28;20480;-72
2022/08/01 02:30:11;;;;;;;7.03;4.40;;;20.60;1.00;;;;;;5084610;28;20482;-72
2022/08/01 02:32:42;;;;;;;5.93;4.30;;;20.60;1.00;;;;;;5096850;28;20451;-72
2022/08/01 02:35:13;;;;;;;7.00;4.67;;;20.60;1.00;;;;;;5088063;28;20433;-72
2022/08/01 02:37:41;;;;;;;5.80;4.00;;;20.70;1.00;;;;;;5091721;28;20842;-72
2022/08/01 02:40:09;;;;;;;5.50;3.70;;;20.70;1.00;;;;;;5089150;28;20810;-72
2022/08/01 02:42:36;;;;;;;4.80;4.30;;;20.70;1.00;;;;;;5085195;28;20453;-72
2022/08/01 02:45:04;;;;;;;7.60;3.90;;;20.70;1.00;;;;;;5092962;28;20402;-73
2022/08/01 02:47:31;;;;;;;6.87;3.60;;;20.70;1.00;;;;;;5090673;28;21022;-72
2022/08/01 02:49:59;;;;;;;6.90;4.30;;;20.60;1.00;;;;;;5090522;28;20966;-73
2022/08/01 02:52:26;;;;;;;6.40;4.20;;;20.60;1.00;;;;;;5085874;28;20452;-73
2022/08/01 02:54:54;;;;;;;8.30;4.50;;;20.60;1.00;;;;;;5092304;28;20406;-72
2022/08/01 02:57:21;;;;;;;8.03;4.13;;;20.60;1.00;;;;;;5091397;28;20786;-73
2022/08/01 02:59:49;;;;;;;6.80;4.27;;;20.60;1.00;;;;;;5091101;28;20437;-73
2022/08/01 03:02:16;;;;;;;6.67;3.83;;;20.60;1.00;;;;;;5097093;28;20957;-72
2022/08/01 03:04:42;;;;;;;7.70;4.57;;;20.60;1.00;;;;;;5094561;28;20441;-72
2022/08/01 03:07:10;;;;;;;7.70;4.27;;;20.60;1.00;;;;;;5091954;28;20970;-72
2022/08/01 03:09:39;;;;;;;6.50;4.50;;;20.60;1.00;;;;;;5089912;28;20433;-72
2022/08/01 03:12:09;;;;;;;5.30;4.13;;;20.50;1.00;;;;;;5083487;28;21015;-72
2022/08/01 03:14:37;;;;;;;7.30;4.90;;;20.50;1.00;;;;;;5089174;28;20756;-72
2022/08/01 03:17:04;;;;;;;6.03;4.30;;;20.40;1.00;;;;;;5090810;28;20831;-72
2022/08/01 03:19:31;;;;;;;5.70;4.40;;;20.40;1.00;;;;;;5092035;28;20412;-72
2022/08/01 03:22:03;;;;;;;6.10;4.40;;;20.40;1.00;;;;;;5090837;28;20473;-72
2022/08/01 03:24:30;;;;;;;5.07;4.17;;;20.30;1.00;;;;;;5089701;28;21016;-72
2022/08/01 03:26:57;;;;;;;5.73;4.23;;;20.20;1.00;;;;;;5089320;28;20421;-72
2022/08/01 03:29:25;;;;;;;6.90;4.53;;;20.10;1.00;;;;;;5089711;28;20867;-73
2022/08/01 03:31:52;;;;;;;5.00;3.93;;;20.00;1.00;;;;;;5091891;28;21032;-72
2022/08/01 03:34:20;;;;;;;5.83;4.70;;;20.00;1.00;;;;;;5090456;28;20852;-73
2022/08/01 03:37:04;;;;;;;9.27;3.93;;;20.00;1.00;;;;;;5092259;28;20409;-72
2022/08/01 03:39:36;;;;;;;6.23;3.87;;;20.00;1.00;;;;;;5082839;28;20958;-72
2022/08/01 03:42:10;;;;;;;5.00;4.20;;;20.00;1.00;;;;;;5085548;28;20454;-72
2022/08/01 03:44:38;;;;;;;4.80;3.37;;;20.10;1.00;;;;;;5092133;28;20413;-72
2022/08/01 03:47:08;;;;;;;4.53;3.90;;;20.10;1.00;;;;;;5090019;28;20425;-72
2022/08/01 03:49:38;;;;;;;7.50;4.40;;;20.10;1.00;;;;;;5090582;28;20416;-72
2022/08/01 03:52:07;;;;;;;6.20;4.33;;;20.10;1.00;;;;;;5089589;28;20442;-72
2022/08/01 03:54:36;;;;;;;6.10;4.23;;;20.10;1.00;;;;;;5088438;28;20421;-72
2022/08/01 03:57:03;;;;;;;7.63;4.20;;;20.10;1.00;;;;;;5080910;28;20426;-72
2022/08/01 03:59:29;;;;;;;5.57;4.10;;;20.10;1.00;;;;;;5086273;28;20468;-72
2022/08/01 04:01:56;;;;;;;5.23;3.93;;;20.00;1.00;;;;;;5087417;28;21245;-72
2022/08/01 04:04:22;;;;;;;5.93;3.90;;;19.90;1.00;;;;;;5083089;28;20414;-72
2022/08/01 04:06:50;;;;;;;5.23;4.20;;;19.90;1.00;;;;;;5085186;28;20421;-72
2022/08/01 04:09:16;;;;;;;11.73;4.53;;;19.90;1.00;;;;;;5091210;28;20420;-72
2022/08/01 04:11:42;;;;;;;6.83;4.57;;;19.90;1.00;;;;;;5082289;28;20458;-72
2022/08/01 04:14:08;;;;;;;7.87;4.23;;;19.90;1.00;;;;;;5089818;28;20176;-72
2022/08/01 04:16:34;;;;;;;5.60;4.27;;;19.90;1.00;;;;;;5088873;28;20168;-72
2022/08/01 04:18:59;;;;;;;9.23;4.50;;;19.80;1.00;;;;;;5089826;28;20175;-72
2022/08/01 04:21:27;;;;;;;7.07;4.50;;;19.90;1.00;;;;;;5090514;28;20459;-72
2022/08/01 04:23:55;;;;;;;5.60;4.40;;;19.30;1.00;;;;;;5087038;28;20666;-72
2022/08/01 04:26:21;;;;;;;6.03;4.67;;;19.80;1.00;;;;;;5088603;28;20460;-73
2022/08/01 04:28:50;;;;;;;11.07;4.50;;;19.90;1.00;;;;;;5089411;28;20500;-72
2022/08/01 04:31:17;;;;;;;6.27;4.60;;;19.90;1.00;;;;;;5083733;28;20473;-72
2022/08/01 04:33:47;;;;;;;10.00;4.50;;;19.90;1.00;;;;;;5088404;28;20843;-72
2022/08/01 04:36:15;;;;;;;8.40;4.30;;;19.90;1.00;;;;;;5088432;28;20418;-72
2022/08/01 04:38:45;;;;;;;7.67;4.83;;;20.00;1.00;;;;;;5090236;28;20402;-72
2022/08/01 04:41:13;;;;;;;12.80;4.70;;;20.00;1.00;;;;;;5087337;28;20453;-72
2022/08/01 04:43:39;;;;;;;6.70;4.33;;;20.10;1.00;;;;;;5088732;28;20711;-72
2022/08/01 04:46:06;;;;;;;5.77;4.30;;;20.10;1.00;;;;;;5088426;28;20421;-72
2022/08/01 04:48:34;;;;;;;8.63;4.13;;;20.20;1.00;;;;;;5087186;28;20221;-72
2022/08/01 04:51:00;;;;;;;7.43;5.60;;;20.30;1.00;;;;;;5087353;28;20476;-72
2022/08/01 04:53:26;;;;;;;5.90;4.50;;;20.30;1.00;;;;;;5089603;28;20417;-73
2022/08/01 04:55:51;;;;;;;7.17;4.60;;;20.40;1.00;;;;;;5083340;28;20441;-72
2022/08/01 04:58:18;;;;;;;7.40;4.73;;;20.40;1.00;;;;;;5089285;28;20517;-72
2022/08/01 05:00:43;;;;;;;12.17;4.57;;;20.50;1.00;;;;;;5089945;28;20214;-72
2022/08/01 05:03:09;;;;;;;6.80;4.17;;;20.60;1.00;;;;;;5093749;28;20456;-72
2022/08/01 05:05:35;;;;;;;7.13;4.80;;;20.70;1.00;;;;;;5088855;28;20606;-72
2022/08/01 05:08:00;;;;;;;7.30;4.10;;;20.70;1.00;;;;;;5068782;28;20176;-72
2022/08/01 05:10:27;;;;;;;10.00;4.20;;;20.90;1.00;;;;;;5085587;28;20199;-72
2022/08/01 05:12:52;;;;;;;5.93;4.50;;;21.00;1.00;;;;;;5085881;28;20545;-72
2022/08/01 05:15:18;;;;;;;6.63;4.40;;;21.10;1.00;;;;;;5089918;28;20413;-72
2022/08/01 05:17:44;;;;;;;7.60;3.83;;;21.20;1.00;;;;;;5088306;28;20609;-72
2022/08/01 05:20:11;;;;;;;6.47;4.20;;;21.30;1.00;;;;;;5089679;28;20312;-72
2022/08/01 05:22:37;;;;;;;5.80;3.80;;;21.40;1.00;;;;;;5084207;28;20252;-73
2022/08/01 05:25:04;;;;;;;5.23;4.00;;;21.40;1.00;;;;;;5089037;28;20508;-72
2022/08/01 05:27:30;;;;;;;5.00;4.20;;;21.50;1.00;;;;;;5085709;28;20191;-72
2022/08/01 05:29:56;;;;;;;6.43;3.83;;;21.60;1.00;;;;;;5089270;28;20460;-73
2022/08/01 05:32:22;;;;;;;6.90;4.20;;;21.70;1.00;;;;;;5091462;28;20834;-72
2022/08/01 05:34:48;;;;;;;4.77;3.60;;;21.70;1.00;;;;;;5101128;28;20400;-72
2022/08/01 05:37:13;;;;;;;7.70;4.30;;;21.60;1.00;;;;;;5098203;28;20274;-72
2022/08/01 05:39:39;;;;;;;5.27;3.97;;;21.70;1.00;;;;;;5088580;28;20629;-72
2022/08/01 05:42:05;;;;;;;5.37;4.10;;;21.80;1.00;;;;;;5083683;28;20230;-72
2022/08/01 05:44:31;;;;;;;7.90;3.97;;;21.90;1.00;;;;;;5081467;28;20172;-72
2022/08/01 05:46:56;;;;;;;6.47;4.53;;;22.00;1.00;;;;;;5073903;28;20176;-72
2022/08/01 05:49:22;;;;;;;6.07;4.40;;;22.10;1.00;;;;;;5070987;28;20180;-72
2022/08/01 05:51:47;;;;;;;7.17;4.33;;;22.20;1.00;;;;;;5088757;28;20211;-72
2022/08/01 05:54:13;;;;;;;6.13;4.30;;;22.40;1.00;;;;;;5086710;28;20175;-73
2022/08/01 05:56:38;;;;;;;6.97;4.47;;;22.40;1.00;;;;;;5084323;28;20681;-72
2022/08/01 05:59:04;;;;;;;6.57;4.20;;;22.30;1.00;;;;;;5086428;28;20183;-73
2022/08/01 06:01:29;;;;;;;5.80;4.50;;;22.30;1.00;;;;;;5083667;28;20230;-73
2022/08/01 06:03:55;;;;;;;6.20;3.90;;;22.10;1.00;;;;;;5083863;28;20174;-73
2022/08/01 06:06:21;;;;;;;6.53;3.90;;;22.10;1.00;;;;;;5089531;28;20179;-73
2022/08/01 06:08:46;;;;;;;5.57;4.23;;;22.10;1.00;;;;;;5087459;28;20171;-73
2022/08/01 06:11:12;;;;;;;6.23;4.27;;;22.20;1.00;;;;;;5084636;28;20457;-72
2022/08/01 06:13:38;;;;;;;5.37;4.23;;;22.30;1.00;;;;;;5086953;28;20664;-73
2022/08/01 06:16:04;;;;;;;4.93;3.70;;;22.30;1.00;;;;;;5081177;28;20221;-72
2022/08/01 06:18:29;;;;;;;4.73;3.50;;;22.40;1.00;;;;;;5079312;28;20618;-72
2022/08/01 06:20:55;;;;;;;5.40;4.17;;;22.50;1.00;;;;;;5083611;28;20198;-72
2022/08/01 06:23:23;;;;;;;5.83;3.80;;;22.90;1.00;;;;;;5082184;28;20834;-72
2022/08/01 06:25:52;;;;;;;7.57;4.13;;;22.80;1.00;;;;;;5083045;28;20187;-72
2022/08/01 06:28:17;;;;;;;5.47;2.70;;;22.90;1.00;;;;;;5086549;28;20441;-73
2022/08/01 06:30:43;;;;;;;7.03;3.00;;;23.00;1.00;;;;;;5072586;28;20890;-72
2022/08/01 06:33:08;;;;;;;4.00;2.90;;;23.00;1.00;;;;;;5076365;28;20175;-73
2022/08/01 06:35:34;;;;;;;7.10;3.10;;;23.20;1.00;;;;;;5092406;28;20714;-72
2022/08/01 06:37:59;;;;;;;5.60;3.03;;;23.50;1.00;;;;;;5089184;28;20206;-73
2022/08/01 06:40:25;;;;;;;7.80;2.93;;;23.70;1.00;;;;;;5086497;28;20561;-71
2022/08/01 06:42:51;;;;;;;6.60;3.03;;;23.90;1.00;;;;;;5080109;28;20188;-72
2022/08/01 06:45:17;;;;;;;5.00;2.83;;;24.00;1.00;;;;;;5083522;28;20259;-71
2022/08/01 06:47:44;;;;;;;4.38;2.70;;;24.10;1.00;;;;;;5083785;28;21284;-73
2022/08/01 06:50:10;;;;;;;5.67;2.80;;;24.20;1.00;;;;;;5081086;28;20220;-73
2022/08/01 06:52:37;;;;;;;3.80;2.77;;;24.40;1.00;;;;;;5083646;28;20436;-73
2022/08/01 06:55:04;;;;;;;7.50;2.50;;;24.40;1.00;;;;;;5087982;28;20436;-74
2022/08/01 06:57:29;;;;;;;5.70;2.60;;;24.40;1.00;;;;;;5082679;28;20422;-73
2022/08/01 06:59:56;;;;;;;6.27;2.60;;;24.60;1.00;;;;;;5081408;28;20444;-74
2022/08/01 07:02:22;;;;;;;5.03;2.70;;;24.80;1.00;;;;;;5083411;28;20622;-73
2022/08/01 07:04:48;;;;;;;3.27;2.50;;;24.80;1.00;;;;;;5085121;28;20468;-73
2022/08/01 07:07:13;;;;;;;2.90;1.90;;;24.90;1.00;;;;;;5086851;28;20496;-73
2022/08/01 07:09:41;;;;;;;3.47;2.23;;;25.00;1.00;;;;;;5085867;28;20277;-74
2022/08/01 07:12:07;;;;;;;4.57;2.30;;;25.10;1.00;;;;;;5078022;28;20588;-73
2022/08/01 07:14:32;;;;;;;6.20;2.50;;;25.30;1.00;;;;;;5085021;28;20467;-73
2022/08/01 07:16:58;;;;;;;5.13;2.27;;;25.40;1.00;;;;;;5081410;28;20175;-73
2022/08/01 07:19:23;;;;;;;4.30;2.40;;;25.50;1.00;;;;;;5092718;28;20174;-73
2022/08/01 07:21:49;;;;;;;5.10;2.00;;;25.70;1.00;;;;;;5085522;28;20724;-73
2022/08/01 07:24:14;;;;;;;4.53;2.60;;;25.80;1.00;;;;;;5093374;28;20171;-73
2022/08/01 07:26:42;;;;;;;3.37;1.70;;;25.90;1.00;;;;;;5082403;28;20266;-73
2022/08/01 07:29:08;;;;;;;4.50;2.03;;;26.00;1.00;;;;;;5084051;28;20170;-73
2022/08/01 07:31:33;;;;;;;4.20;2.20;;;26.20;1.00;;;;;;5082803;28;21052;-73
2022/08/01 07:33:59;;;;;;;3.77;2.33;;;26.60;1.00;;;;;;5093485;28;20163;-73
2022/08/01 07:36:24;;;;;;;2.80;1.90;;;27.00;1.00;;;;;;5087947;28;20167;-73
2022/08/01 07:38:50;;;;;;;6.57;2.80;;;27.50;1.00;;;;;;5088702;28;20187;-74
2022/08/01 07:41:15;;;;;;;5.00;2.03;;;27.70;1.00;;;;;;5084761;28;20671;-73
2022/08/01 07:43:41;;;;;;;3.97;2.20;;;27.30;1.00;;;;;;5082387;28;20207;-74
2022/08/01 07:46:06;;;;;;;4.43;2.23;;;27.00;1.00;;;;;;5077829;28;20551;-74
2022/08/01 07:48:32;;;;;;;3.53;2.20;;;26.80;1.00;;;;;;5090022;28;20171;-74
2022/08/01 07:50:58;;;;;;;8.83;2.30;;;26.60;1.00;;;;;;5090028;28;20210;-73
2022/08/01 07:53:24;;;;;;;3.70;2.20;;;26.50;1.00;;;;;;5090364;28;20225;-73
2022/08/01 07:55:49;;;;;;;4.90;2.10;;;26.90;1.00;;;;;;5090887;28;20803;-73
2022/08/01 07:58:16;;;;;;;2.90;1.87;;;27.50;1.00;;;;;;5088455;28;20190;-74
2022/08/01 08:00:41;;;;;;;3.23;1.70;;;27.60;1.00;;;;;;5089242;28;20254;-73
2022/08/01 08:03:07;;;;;;;3.80;1.93;;;27.10;1.00;;;;;;5097703;28;20254;-73
2022/08/01 08:05:36;;;;;;;4.50;1.70;;;26.90;1.00;;;;;;5093113;28;20344;-73
2022/08/01 08:08:04;;;;;;;2.90;1.93;;;26.70;1.00;;;;;;5080256;28;20179;-74
2022/08/01 08:10:30;;;;;;;4.43;1.97;;;27.10;1.00;;;;;;5085455;28;20978;-73
2022/08/01 08:12:55;;;;;;;3.37;1.90;;;27.80;1.00;;;;;;5081483;28;20483;-73
2022/08/01 08:15:21;;;;;;;5.87;2.07;;;27.90;1.00;;;;;;5080575;28;20255;-74
2022/08/01 08:17:46;;;;;;;4.23;1.90;;;28.30;1.00;;;;;;5083753;28;20175;-73
2022/08/01 08:20:12;;;;;;;7.67;2.10;;;28.60;1.00;;;;;;5087954;28;20183;-74
2022/08/01 08:22:38;;;;;;;2.93;1.70;;;28.70;1.00;;;;;;5087304;28;20293;-74
2022/08/01 08:25:04;;;;;;;2.80;1.67;;;28.40;1.00;;;;;;5088764;28;20179;-74
2022/08/01 08:27:30;;;;;;;3.87;1.90;;;28.10;1.00;;;;;;5087480;28;20493;-73
2022/08/01 08:29:56;;;;;;;2.83;1.90;;;28.20;1.00;;;;;;5082792;28;20667;-73
2022/08/01 08:32:21;;;;;;;2.60;1.70;;;28.70;1.00;;;;;;5088333;28;20195;-74
2022/08/01 08:34:47;;;;;;;3.40;2.03;;;29.20;1.00;;;;;;5100246;28;20245;-74
2022/08/01 08:37:12;;;;;;;3.50;2.20;;;29.70;1.00;;;;;;5085827;28;20182;-74
2022/08/01 08:39:38;;;;;;;2.60;1.70;;;30.30;1.00;;;;;;5086021;28;20183;-74
2022/08/01 08:42:07;;;;;;;2.87;1.90;;;30.30;1.00;;;;;;5082420;28;20210;-74
2022/08/01 08:44:33;;;;;;;3.77;1.97;;;30.00;1.00;;;;;;5087900;28;20262;-73
2022/08/01 08:47:04;;;;;;;3.43;1.87;;;29.80;1.00;;;;;;5089471;28;20254;-74
2022/08/01 08:49:31;;;;;;;2.70;1.70;;;30.00;1.00;;;;;;5086039;28;20266;-74
2022/08/01 08:52:01;;;;;;;3.47;2.00;;;29.60;1.00;;;;;;5090125;28;20619;-74
2022/08/01 08:54:28;;;;;;;3.17;1.70;;;29.30;1.00;;;;;;5087065;28;20209;-73
2022/08/01 08:56:54;;;;;;;5.20;1.85;;;30.10;1.00;;;;;;5089198;28;20205;-74
2022/08/01 08:59:21;;;;;;;4.32;1.80;;;31.90;1.00;;;;;;5088364;28;20183;-74
2022/08/01 09:01:47;;;;;;;3.60;2.00;;;33.10;1.00;;;;;;5089738;28;20229;-74
2022/08/01 09:04:13;;;;;;;5.03;2.10;;;33.40;1.00;;;;;;5078156;28;20187;-74
2022/08/01 09:06:39;;;;;;;3.47;2.00;;;32.90;1.00;;;;;;5080396;28;20180;-74
2022/08/01 09:09:05;;;;;;;4.53;2.25;;;32.60;1.00;;;;;;5085552;28;20183;-74
2022/08/01 09:11:31;;;;;;;5.78;2.22;;;32.10;1.00;;;;;;5075331;28;20230;-74
2022/08/01 09:14:22;;;;;;;3.50;2.05;;;32.00;1.00;;;;;;5090021;28;20603;-74
2022/08/01 09:17:10;;;;;;;7.80;2.00;;;32.90;1.00;;;;;;5076829;28;20265;-74
2022/08/01 09:19:53;;;;;;;3.42;1.92;;;35.30;1.00;;;;;;5082854;28;20207;-74
2022/08/01 09:22:22;;;;;;;3.30;1.75;;;36.10;1.00;;;;;;5089198;28;20199;-74
2022/08/01 09:25:08;;;;;;;4.05;1.90;;;36.50;1.00;;;;;;5084308;28;20171;-74
2022/08/01 09:27:35;;;;;;;5.70;1.70;;;36.50;1.00;;;;;;5086830;28;20190;-74
2022/08/01 09:30:13;;;;;;;2.53;1.60;;;35.50;1.00;;;;;;5079280;28;20262;-74
2022/08/01 09:32:54;;;;;;;2.30;1.60;;;34.50;1.00;;;;;;5084484;28;20198;-74
2022/08/01 09:35:25;;;;;;;4.22;1.90;;;33.30;1.00;;;;;;5103541;28;20629;-74
2022/08/01 09:37:51;;;;;;;3.17;1.77;;;32.80;1.00;;;;;;5090152;28;20645;-74
2022/08/01 09:40:16;;;;;;;3.10;1.90;;;33.10;1.00;;;;;;5090034;28;20179;-74
2022/08/01 09:42:42;;;;;;;6.35;1.80;;;33.50;1.00;;;;;;5082862;28;20194;-74
2022/08/01 09:45:08;;;;;;;4.38;1.75;;;34.20;1.00;;;;;;5089092;28;20207;-74
2022/08/01 09:47:40;;;;;;;5.55;1.50;;;34.10;1.00;;;;;;5082179;28;20543;-74
2022/08/01 09:50:06;;;;;;;3.92;1.83;;;33.70;1.00;;;;;;5090009;28;20704;-74
2022/08/01 09:52:32;;;;;;;3.65;1.52;;;33.50;1.00;;;;;;5089180;28;20205;-74
2022/08/01 09:55:06;;;;;;;3.58;1.60;;;33.40;1.00;;;;;;5081475;28;20546;-74
2022/08/01 09:57:32;;;;;;;2.72;1.67;;;33.30;1.00;;;;;;5083589;28;20204;-74
2022/08/01 09:59:59;;;;;;;4.60;2.22;;;33.20;1.00;;;;;;5090405;28;20167;-74
2022/08/01 10:02:34;;;;;;;4.38;1.40;;;32.90;1.00;;;;;;5081173;28;20205;-74
2022/08/01 10:05:01;;;;;;;2.30;1.50;;;32.60;1.00;;;;;;5090040;28;20541;-74
2022/08/01 10:07:27;;;;;;;4.25;1.80;;;32.80;1.00;;;;;;5085000;28;20268;-74
2022/08/01 10:09:52;;;;;;;6.80;1.70;;;32.60;1.00;;;;;;5090030;28;20811;-74
2022/08/01 10:12:23;;;;;;;3.47;1.80;;;32.80;1.00;;;;;;5081644;28;20623;-74
2022/08/01 10:14:51;;;;;;;2.63;1.50;;;32.80;1.00;;;;;;5083570;28;20177;-74
2022/08/01 10:17:19;;;;;;;2.50;1.40;;;33.30;1.00;;;;;;5081044;28;20175;-74
2022/08/01 10:19:46;;;;;;;3.33;1.35;;;35.10;1.00;;;;;;5082593;28;20179;-74
2022/08/01 10:22:17;;;;;;;2.60;1.38;;;36.90;1.00;;;;;;5083395;28;20264;-74
2022/08/01 10:24:46;;;;;;;3.08;1.63;;;37.00;1.00;;;;;;5089132;28;20170;-74
2022/08/01 10:27:14;;;;;;;3.65;1.70;;;36.80;1.00;;;;;;5083381;28;20175;-74
2022/08/01 10:29:50;;;;;;;2.60;1.30;;;36.80;1.00;;;;;;5083973;28;20175;-74
2022/08/01 10:32:17;;;;;;;3.35;1.45;;;35.80;1.00;;;;;;5082230;28;20245;-74
2022/08/01 10:34:42;;;;;;;2.38;1.40;;;34.90;1.00;;;;;;5084058;28;20331;-74
2022/08/01 10:37:09;;;;;;;2.50;1.40;;;34.30;1.00;;;;;;5089984;28;20642;-75
2022/08/01 10:39:35;;;;;;;2.75;1.50;;;33.10;1.00;;;;;;5086501;28;20187;-74
2022/08/01 10:42:02;;;;;;;2.50;1.50;;;32.40;1.00;;;;;;5088495;28;20191;-74
2022/08/01 10:44:30;;;;;;;2.92;1.90;;;31.90;1.00;;;;;;5083200;28;20171;-74
2022/08/01 10:47:03;;;;;;;3.50;1.73;;;31.70;1.00;;;;;;5082467;28;20210;-74
2022/08/01 10:49:34;;;;;;;3.53;1.90;;;31.50;1.00;;;;;;5081972;28;20669;-73
2022/08/01 10:51:59;;;;;;;3.72;1.70;;;31.40;1.00;;;;;;5082193;28;20226;-74
2022/08/01 10:54:26;;;;;;;2.88;1.80;;;31.60;1.00;;;;;;5091471;28;20540;-74
2022/08/01 10:56:52;;;;;;;3.35;1.65;;;31.80;1.00;;;;;;5092043;28;20172;-74
2022/08/01 10:59:26;;;;;;;5.70;1.73;;;31.80;1.00;;;;;;5089822;28;20203;-74
2022/08/01 11:02:05;;;;;;;2.70;1.63;;;31.90;1.00;;;;;;5089055;28;20638;-74
2022/08/01 11:04:55;;;;;;;4.78;1.90;;;31.80;1.00;;;;;;5090533;28;20718;-73
2022/08/01 11:07:53;;;;;;;3.47;1.67;;;32.20;1.00;;;;;;5072445;28;20172;-74
2022/08/01 11:10:29;;;;;;;2.72;1.70;;;32.20;1.00;;;;;;5083625;28;20207;-74
2022/08/01 11:12:55;;;;;;;2.30;1.60;;;32.20;1.00;;;;;;5080173;28;20175;-74
2022/08/01 11:15:27;;;;;;;3.00;1.55;;;32.20;1.00;;;;;;5089165;28;20690;-74
2022/08/01 11:17:54;;;;;;;3.13;1.70;;;32.00;1.00;;;;;;5080913;28;20179;-74
2022/08/01 11:20:22;;;;;;;3.10;1.73;;;31.90;1.00;;;;;;5084568;28;20624;-74
2022/08/01 11:23:00;;;;;;;2.53;1.63;;;31.60;1.00;;;;;;5088258;28;20190;-75
2022/08/01 11:25:35;;;;;;;3.80;1.90;;;31.50;1.00;;;;;;5086515;28;20649;-74
2022/08/01 11:28:16;;;;;;;4.30;1.80;;;31.50;1.00;;;;;;5083958;28;20198;-74
2022/08/01 11:30:43;;;;;;;3.47;1.80;;;31.60;1.00;;;;;;5088925;28;20195;-74
2022/08/01 11:33:08;;;;;;;4.40;1.95;;;31.50;1.00;;;;;;5100014;28;20577;-75
2022/08/01 11:35:36;;;;;;;5.05;1.85;;;31.50;1.00;;;;;;5098442;28;20195;-74
2022/08/01 11:38:30;;;;;;;12.15;2.10;;;31.50;1.00;;;;;;5087066;28;20609;-74
2022/08/01 11:41:17;;;;;;;4.00;1.90;;;31.70;1.00;;;;;;5089637;28;20194;-73
2022/08/01 11:44:02;;;;;;;4.13;1.80;;;32.10;1.00;;;;;;5089474;28;20175;-74
2022/08/01 11:46:46;;;;;;;6.88;1.92;;;33.50;1.00;;;;;;5080599;28;20229;-74
2022/08/01 11:49:33;;;;;;;4.70;1.80;;;36.00;1.00;;;;;;5086802;28;20225;-74
2022/08/01 11:52:09;;;;;;;3.22;1.90;;;37.00;1.00;;;;;;5089542;28;20711;-75
2022/08/01 11:54:37;;;;;;;4.43;1.90;;;37.30;1.00;;;;;;5090310;28;20196;-75
2022/08/01 11:57:09;;;;;;;4.55;1.98;;;38.10;1.00;;;;;;5083456;28;20199;-75
2022/08/01 11:59:45;;;;;;;2.53;1.60;;;39.80;1.00;;;;;;5089326;28;20214;-75
2022/08/01 12:02:20;;;;;;;2.45;1.70;;;40.10;1.00;;;;;;5086649;28;20214;-75
2022/08/01 12:05:06;;;;;;;2.60;1.60;;;39.80;1.00;;;;;;5094478;28;20175;-75
2022/08/01 12:07:33;;;;;;;2.40;1.50;;;40.90;1.00;;;;;;5082148;28;20248;-75
2022/08/01 12:10:09;;;;;;;3.05;1.65;;;42.20;1.00;;;;;;5084684;28;20267;-75
2022/08/01 12:12:36;;;;;;;2.60;1.75;;;41.40;1.00;;;;;;5087007;28;20568;-75
2022/08/01 12:15:08;;;;;;;3.80;1.70;;;40.10;1.00;;;;;;5090300;28;20203;-75
2022/08/01 12:17:38;;;;;;;3.38;1.67;;;39.50;1.00;;;;;;5088106;28;20653;-76
2022/08/01 12:20:06;;;;;;;2.47;1.60;;;39.30;1.00;;;;;;5086003;28;20168;-75
2022/08/01 12:22:32;;;;;;;2.60;1.70;;;39.10;1.00;;;;;;5086009;28;20199;-75
2022/08/01 12:25:12;;;;;;;3.50;1.80;;;39.10;1.00;;;;;;5091049;28;20244;-75
2022/08/01 12:27:40;;;;;;;3.03;1.70;;;38.70;1.00;;;;;;5089315;28;20663;-74
2022/08/01 12:30:11;;;;;;;2.70;1.80;;;38.40;1.00;;;;;;5089460;28;20236;-75
2022/08/01 12:32:39;;;;;;;2.30;1.75;;;37.90;1.00;;;;;;5086302;28;20219;-75
2022/08/01 12:35:10;;;;;;;2.50;1.70;;;39.00;1.00;;;;;;5086537;28;20223;-75
2022/08/01 12:37:43;;;;;;;2.75;1.65;;;41.10;1.00;;;;;;5087594;28;20174;-75
2022/08/01 12:40:26;;;;;;;3.20;1.60;;;42.00;1.00;;;;;;5089776;28;20183;-75
2022/08/01 12:42:54;;;;;;;2.50;1.80;;;41.10;1.00;;;;;;5087934;28;20175;-75
2022/08/01 12:45:23;;;;;;;2.47;1.55;;;40.50;1.00;;;;;;5087695;28;20198;-75
2022/08/01 12:47:50;;;;;;;3.35;1.80;;;40.00;1.00;;;;;;5080388;28;20550;-75
2022/08/01 12:50:20;;;;;;;3.35;2.10;;;38.50;1.00;;;;;;5083415;28;20221;-75
2022/08/01 12:52:47;;;;;;;6.72;1.90;;;37.50;1.00;;;;;;5083013;28;20211;-74
2022/08/01 12:55:18;;;;;;;2.65;1.65;;;36.50;1.00;;;;;;5090817;28;20175;-75
2022/08/01 12:57:52;;;;;;;3.10;1.95;;;36.80;1.00;;;;;;5079622;28;20180;-75
2022/08/01 13:00:21;;;;;;;3.20;1.60;;;38.40;1.00;;;;;;5085080;28;20732;-75
2022/08/01 13:02:48;;;;;;;3.90;1.65;;;38.00;1.00;;;;;;5081064;28;20192;-75
2022/08/01 13:05:14;;;;;;;2.80;1.73;;;38.00;1.00;;;;;;5090379;28;20168;-75